sensor_id;sensor_type;location;lat;lon;timestamp;P1;durP1;ratioP1;P2;durP2;ratioP2
79574;SDS011;69044;48.198;11.468;2023-08-06T00:02:27;4.70;;;2.80;;
79574;SDS011;69044;48.198;11.468;2023-08-06T00:04:54;5.78;;;2.70;;
79574;SDS011;69044;48.198;11.468;2023-08-06T00:10:39;5.18;;;2.88;;
79574;SDS011;69044;48.198;11.468;2023-08-06T00:13:07;3.80;;;2.33;;
79574;SDS011;69044;48.198;11.468;2023-08-06T00:15:35;4.28;;;2.80;;
79574;SDS011;69044;48.198;11.468;2023-08-06T00:18:02;4.82;;;2.95;;
79574;SDS011;69044;48.198;11.468;2023-08-06T00:20:29;6.07;;;2.92;;
79574;SDS011;69044;48.198;11.468;2023-08-06T00:22:56;6.38;;;3.13;;
79574;SDS011;69044;48.198;11.468;2023-08-06T00:25:24;3.92;;;2.42;;
79574;SDS011;69044;48.198;11.468;2023-08-06T00:27:51;7.18;;;3.08;;
79574;SDS011;69044;48.198;11.468;2023-08-06T00:30:19;4.65;;;2.60;;
79574;SDS011;69044;48.198;11.468;2023-08-06T00:32:46;5.72;;;2.45;;
79574;SDS011;69044;48.198;11.468;2023-08-06T00:35:14;3.63;;;2.33;;
79574;SDS011;69044;48.198;11.468;2023-08-06T00:37:42;4.38;;;2.50;;
79574;SDS011;69044;48.198;11.468;2023-08-06T00:40:09;5.65;;;2.58;;
79574;SDS011;69044;48.198;11.468;2023-08-06T00:42:36;5.95;;;2.65;;
79574;SDS011;69044;48.198;11.468;2023-08-06T00:45:03;4.95;;;2.72;;
79574;SDS011;69044;48.198;11.468;2023-08-06T00:47:32;3.53;;;2.50;;
79574;SDS011;69044;48.198;11.468;2023-08-06T00:50:00;6.13;;;2.63;;
79574;SDS011;69044;48.198;11.468;2023-08-06T00:52:27;5.05;;;2.55;;
79574;SDS011;69044;48.198;11.468;2023-08-06T00:54:54;5.25;;;2.45;;
79574;SDS011;69044;48.198;11.468;2023-08-06T00:57:21;4.35;;;2.67;;
79574;SDS011;69044;48.198;11.468;2023-08-06T00:59:51;4.45;;;2.60;;
79574;SDS011;69044;48.198;11.468;2023-08-06T01:02:19;5.00;;;2.90;;
79574;SDS011;69044;48.198;11.468;2023-08-06T01:04:47;4.55;;;2.85;;
79574;SDS011;69044;48.198;11.468;2023-08-06T01:07:18;4.03;;;2.58;;
79574;SDS011;69044;48.198;11.468;2023-08-06T01:09:53;6.28;;;2.83;;
79574;SDS011;69044;48.198;11.468;2023-08-06T01:12:25;3.38;;;2.20;;
79574;SDS011;69044;48.198;11.468;2023-08-06T01:15:00;6.78;;;3.25;;
79574;SDS011;69044;48.198;11.468;2023-08-06T01:17:31;3.85;;;2.42;;
79574;SDS011;69044;48.198;11.468;2023-08-06T01:20:00;4.60;;;2.90;;
79574;SDS011;69044;48.198;11.468;2023-08-06T01:22:29;4.28;;;2.80;;
79574;SDS011;69044;48.198;11.468;2023-08-06T01:24:56;4.82;;;2.53;;
79574;SDS011;69044;48.198;11.468;2023-08-06T01:27:24;5.13;;;3.00;;
79574;SDS011;69044;48.198;11.468;2023-08-06T01:29:56;4.68;;;2.50;;
79574;SDS011;69044;48.198;11.468;2023-08-06T01:34:56;5.07;;;3.00;;
79574;SDS011;69044;48.198;11.468;2023-08-06T01:37:26;6.22;;;3.10;;
79574;SDS011;69044;48.198;11.468;2023-08-06T01:39:56;4.70;;;2.75;;
79574;SDS011;69044;48.198;11.468;2023-08-06T01:42:24;6.18;;;3.05;;
79574;SDS011;69044;48.198;11.468;2023-08-06T01:44:51;4.70;;;2.78;;
79574;SDS011;69044;48.198;11.468;2023-08-06T01:47:18;5.25;;;3.08;;
79574;SDS011;69044;48.198;11.468;2023-08-06T01:49:45;4.65;;;2.92;;
79574;SDS011;69044;48.198;11.468;2023-08-06T01:52:13;6.10;;;3.15;;
79574;SDS011;69044;48.198;11.468;2023-08-06T01:54:41;4.60;;;2.80;;
79574;SDS011;69044;48.198;11.468;2023-08-06T01:57:10;4.70;;;2.90;;
79574;SDS011;69044;48.198;11.468;2023-08-06T01:59:37;4.65;;;2.90;;
79574;SDS011;69044;48.198;11.468;2023-08-06T02:02:04;4.63;;;2.60;;
79574;SDS011;69044;48.198;11.468;2023-08-06T02:04:31;4.00;;;2.70;;
79574;SDS011;69044;48.198;11.468;2023-08-06T02:06:58;3.72;;;2.42;;
79574;SDS011;69044;48.198;11.468;2023-08-06T02:09:26;4.15;;;2.60;;
79574;SDS011;69044;48.198;11.468;2023-08-06T02:11:54;4.22;;;2.47;;
79574;SDS011;69044;48.198;11.468;2023-08-06T02:14:22;5.30;;;2.40;;
79574;SDS011;69044;48.198;11.468;2023-08-06T02:16:49;5.20;;;2.80;;
79574;SDS011;69044;48.198;11.468;2023-08-06T02:19:16;5.13;;;2.53;;
79574;SDS011;69044;48.198;11.468;2023-08-06T02:21:43;3.97;;;2.40;;
79574;SDS011;69044;48.198;11.468;2023-08-06T02:24:10;4.60;;;2.53;;
79574;SDS011;69044;48.198;11.468;2023-08-06T02:26:38;3.88;;;2.58;;
79574;SDS011;69044;48.198;11.468;2023-08-06T02:29:06;3.80;;;2.42;;
79574;SDS011;69044;48.198;11.468;2023-08-06T02:31:33;3.97;;;2.40;;
79574;SDS011;69044;48.198;11.468;2023-08-06T02:34:00;3.90;;;2.35;;
79574;SDS011;69044;48.198;11.468;2023-08-06T02:36:27;4.20;;;2.20;;
79574;SDS011;69044;48.198;11.468;2023-08-06T02:38:55;4.53;;;2.15;;
79574;SDS011;69044;48.198;11.468;2023-08-06T02:41:22;3.40;;;2.20;;
79574;SDS011;69044;48.198;11.468;2023-08-06T02:43:49;3.80;;;2.25;;
79574;SDS011;69044;48.198;11.468;2023-08-06T02:46:18;3.30;;;2.10;;
79574;SDS011;69044;48.198;11.468;2023-08-06T02:48:46;2.95;;;2.10;;
79574;SDS011;69044;48.198;11.468;2023-08-06T02:51:13;3.50;;;2.30;;
79574;SDS011;69044;48.198;11.468;2023-08-06T02:53:40;3.80;;;2.30;;
79574;SDS011;69044;48.198;11.468;2023-08-06T02:56:10;3.08;;;2.00;;
79574;SDS011;69044;48.198;11.468;2023-08-06T02:58:55;3.80;;;2.10;;
79574;SDS011;69044;48.198;11.468;2023-08-06T03:01:37;4.63;;;1.92;;
79574;SDS011;69044;48.198;11.468;2023-08-06T03:04:12;3.83;;;2.38;;
79574;SDS011;69044;48.198;11.468;2023-08-06T03:06:43;5.93;;;2.35;;
79574;SDS011;69044;48.198;11.468;2023-08-06T03:09:11;3.15;;;2.10;;
79574;SDS011;69044;48.198;11.468;2023-08-06T03:11:38;3.60;;;2.13;;
79574;SDS011;69044;48.198;11.468;2023-08-06T03:14:10;3.35;;;2.10;;
79574;SDS011;69044;48.198;11.468;2023-08-06T03:16:39;4.30;;;2.22;;
79574;SDS011;69044;48.198;11.468;2023-08-06T03:19:07;3.83;;;2.15;;
79574;SDS011;69044;48.198;11.468;2023-08-06T03:21:35;3.47;;;2.20;;
79574;SDS011;69044;48.198;11.468;2023-08-06T03:24:03;4.40;;;2.10;;
79574;SDS011;69044;48.198;11.468;2023-08-06T03:26:32;5.25;;;2.20;;
79574;SDS011;69044;48.198;11.468;2023-08-06T03:29:01;3.20;;;2.10;;
79574;SDS011;69044;48.198;11.468;2023-08-06T03:31:32;4.72;;;2.95;;
79574;SDS011;69044;48.198;11.468;2023-08-06T03:34:00;3.25;;;2.20;;
79574;SDS011;69044;48.198;11.468;2023-08-06T03:36:30;6.53;;;2.40;;
79574;SDS011;69044;48.198;11.468;2023-08-06T03:38:57;3.60;;;2.03;;
79574;SDS011;69044;48.198;11.468;2023-08-06T03:41:25;3.58;;;2.30;;
79574;SDS011;69044;48.198;11.468;2023-08-06T03:43:52;3.67;;;2.05;;
79574;SDS011;69044;48.198;11.468;2023-08-06T03:46:24;3.65;;;2.20;;
79574;SDS011;69044;48.198;11.468;2023-08-06T03:51:21;3.20;;;2.00;;
79574;SDS011;69044;48.198;11.468;2023-08-06T03:53:48;3.22;;;1.98;;
79574;SDS011;69044;48.198;11.468;2023-08-06T03:56:16;3.80;;;2.05;;
79574;SDS011;69044;48.198;11.468;2023-08-06T03:58:43;3.25;;;1.95;;
79574;SDS011;69044;48.198;11.468;2023-08-06T04:01:10;3.47;;;2.10;;
79574;SDS011;69044;48.198;11.468;2023-08-06T04:03:42;4.10;;;1.88;;
79574;SDS011;69044;48.198;11.468;2023-08-06T04:06:09;2.92;;;1.92;;
79574;SDS011;69044;48.198;11.468;2023-08-06T04:08:38;3.00;;;1.88;;
79574;SDS011;69044;48.198;11.468;2023-08-06T04:11:05;3.25;;;2.10;;
79574;SDS011;69044;48.198;11.468;2023-08-06T04:13:32;3.10;;;1.90;;
79574;SDS011;69044;48.198;11.468;2023-08-06T04:16:00;4.47;;;2.10;;
79574;SDS011;69044;48.198;11.468;2023-08-06T04:18:28;3.75;;;1.85;;
79574;SDS011;69044;48.198;11.468;2023-08-06T04:20:55;3.53;;;2.00;;
79574;SDS011;69044;48.198;11.468;2023-08-06T04:23:23;2.83;;;1.80;;
79574;SDS011;69044;48.198;11.468;2023-08-06T04:25:57;3.53;;;2.00;;
79574;SDS011;69044;48.198;11.468;2023-08-06T04:28:27;2.95;;;1.95;;
79574;SDS011;69044;48.198;11.468;2023-08-06T04:30:55;2.78;;;1.88;;
79574;SDS011;69044;48.198;11.468;2023-08-06T04:33:22;3.58;;;2.13;;
79574;SDS011;69044;48.198;11.468;2023-08-06T04:35:53;5.85;;;2.03;;
79574;SDS011;69044;48.198;11.468;2023-08-06T04:38:22;3.13;;;1.98;;
79574;SDS011;69044;48.198;11.468;2023-08-06T04:40:50;3.75;;;2.08;;
79574;SDS011;69044;48.198;11.468;2023-08-06T04:43:18;3.67;;;2.05;;
79574;SDS011;69044;48.198;11.468;2023-08-06T04:45:46;3.22;;;2.00;;
79574;SDS011;69044;48.198;11.468;2023-08-06T04:48:13;3.50;;;2.10;;
79574;SDS011;69044;48.198;11.468;2023-08-06T04:50:44;3.42;;;1.80;;
79574;SDS011;69044;48.198;11.468;2023-08-06T04:53:11;2.58;;;1.77;;
79574;SDS011;69044;48.198;11.468;2023-08-06T04:55:38;3.70;;;1.73;;
79574;SDS011;69044;48.198;11.468;2023-08-06T04:58:05;3.03;;;1.83;;
79574;SDS011;69044;48.198;11.468;2023-08-06T05:00:34;2.85;;;1.65;;
79574;SDS011;69044;48.198;11.468;2023-08-06T05:03:01;3.05;;;1.80;;
79574;SDS011;69044;48.198;11.468;2023-08-06T05:05:29;3.22;;;2.00;;
79574;SDS011;69044;48.198;11.468;2023-08-06T05:07:56;3.55;;;1.80;;
79574;SDS011;69044;48.198;11.468;2023-08-06T05:10:24;3.80;;;2.00;;
79574;SDS011;69044;48.198;11.468;2023-08-06T05:12:51;3.50;;;1.95;;
79574;SDS011;69044;48.198;11.468;2023-08-06T05:15:18;3.40;;;2.03;;
79574;SDS011;69044;48.198;11.468;2023-08-06T05:17:47;4.15;;;1.83;;
79574;SDS011;69044;48.198;11.468;2023-08-06T05:20:14;3.28;;;1.98;;
79574;SDS011;69044;48.198;11.468;2023-08-06T05:22:41;4.07;;;2.40;;
79574;SDS011;69044;48.198;11.468;2023-08-06T05:25:08;2.70;;;1.80;;
79574;SDS011;69044;48.198;11.468;2023-08-06T05:27:35;2.85;;;1.77;;
79574;SDS011;69044;48.198;11.468;2023-08-06T05:30:03;3.38;;;1.80;;
79574;SDS011;69044;48.198;11.468;2023-08-06T05:32:31;3.33;;;2.10;;
79574;SDS011;69044;48.198;11.468;2023-08-06T05:34:59;2.55;;;1.65;;
79574;SDS011;69044;48.198;11.468;2023-08-06T05:37:26;3.25;;;1.95;;
79574;SDS011;69044;48.198;11.468;2023-08-06T05:39:54;4.28;;;1.80;;
79574;SDS011;69044;48.198;11.468;2023-08-06T05:42:21;4.00;;;1.98;;
79574;SDS011;69044;48.198;11.468;2023-08-06T05:44:48;4.05;;;1.90;;
79574;SDS011;69044;48.198;11.468;2023-08-06T05:47:15;3.70;;;2.10;;
79574;SDS011;69044;48.198;11.468;2023-08-06T05:49:42;4.43;;;2.13;;
79574;SDS011;69044;48.198;11.468;2023-08-06T05:52:11;2.92;;;1.80;;
79574;SDS011;69044;48.198;11.468;2023-08-06T05:54:38;3.78;;;1.83;;
79574;SDS011;69044;48.198;11.468;2023-08-06T05:57:06;3.85;;;1.95;;
79574;SDS011;69044;48.198;11.468;2023-08-06T05:59:33;2.80;;;1.90;;
79574;SDS011;69044;48.198;11.468;2023-08-06T06:02:00;3.72;;;1.90;;
79574;SDS011;69044;48.198;11.468;2023-08-06T06:04:27;3.13;;;2.05;;
79574;SDS011;69044;48.198;11.468;2023-08-06T06:06:55;4.57;;;1.98;;
79574;SDS011;69044;48.198;11.468;2023-08-06T06:09:23;4.68;;;1.92;;
79574;SDS011;69044;48.198;11.468;2023-08-06T06:11:50;2.72;;;1.60;;
79574;SDS011;69044;48.198;11.468;2023-08-06T06:14:18;3.22;;;1.77;;
79574;SDS011;69044;48.198;11.468;2023-08-06T06:16:45;2.42;;;1.58;;
79574;SDS011;69044;48.198;11.468;2023-08-06T06:19:12;2.63;;;1.67;;
79574;SDS011;69044;48.198;11.468;2023-08-06T06:21:40;3.17;;;1.75;;
79574;SDS011;69044;48.198;11.468;2023-08-06T06:24:07;2.85;;;1.75;;
79574;SDS011;69044;48.198;11.468;2023-08-06T06:26:35;3.03;;;1.83;;
79574;SDS011;69044;48.198;11.468;2023-08-06T06:29:02;2.60;;;1.70;;
79574;SDS011;69044;48.198;11.468;2023-08-06T06:31:30;3.08;;;1.77;;
79574;SDS011;69044;48.198;11.468;2023-08-06T06:33:57;2.88;;;1.60;;
79574;SDS011;69044;48.198;11.468;2023-08-06T06:36:24;3.97;;;1.70;;
79574;SDS011;69044;48.198;11.468;2023-08-06T06:38:51;4.95;;;1.80;;
79574;SDS011;69044;48.198;11.468;2023-08-06T06:41:18;4.07;;;1.60;;
79574;SDS011;69044;48.198;11.468;2023-08-06T06:43:47;2.88;;;1.75;;
79574;SDS011;69044;48.198;11.468;2023-08-06T06:46:14;3.85;;;1.75;;
79574;SDS011;69044;48.198;11.468;2023-08-06T06:48:41;2.58;;;1.65;;
79574;SDS011;69044;48.198;11.468;2023-08-06T06:51:08;2.83;;;1.40;;
79574;SDS011;69044;48.198;11.468;2023-08-06T06:53:35;3.78;;;1.60;;
79574;SDS011;69044;48.198;11.468;2023-08-06T06:56:03;3.90;;;1.65;;
79574;SDS011;69044;48.198;11.468;2023-08-06T06:58:30;3.92;;;1.60;;
79574;SDS011;69044;48.198;11.468;2023-08-06T07:00:59;2.60;;;1.58;;
79574;SDS011;69044;48.198;11.468;2023-08-06T07:03:26;2.10;;;1.50;;
79574;SDS011;69044;48.198;11.468;2023-08-06T07:05:57;3.47;;;1.30;;
79574;SDS011;69044;48.198;11.468;2023-08-06T07:08:25;2.08;;;1.30;;
79574;SDS011;69044;48.198;11.468;2023-08-06T07:10:59;3.63;;;1.30;;
79574;SDS011;69044;48.198;11.468;2023-08-06T07:13:27;4.20;;;1.25;;
79574;SDS011;69044;48.198;11.468;2023-08-06T07:15:54;1.85;;;1.17;;
79574;SDS011;69044;48.198;11.468;2023-08-06T07:18:23;1.55;;;0.95;;
79574;SDS011;69044;48.198;11.468;2023-08-06T07:20:50;1.20;;;1.00;;
79574;SDS011;69044;48.198;11.468;2023-08-06T07:23:18;2.50;;;1.40;;
79574;SDS011;69044;48.198;11.468;2023-08-06T07:25:45;12.07;;;4.47;;
79574;SDS011;69044;48.198;11.468;2023-08-06T07:28:13;2.08;;;1.08;;
79574;SDS011;69044;48.198;11.468;2023-08-06T07:30:40;1.88;;;1.15;;
79574;SDS011;69044;48.198;11.468;2023-08-06T07:33:07;1.95;;;1.20;;
79574;SDS011;69044;48.198;11.468;2023-08-06T07:35:36;3.95;;;1.25;;
79574;SDS011;69044;48.198;11.468;2023-08-06T07:38:04;2.65;;;1.20;;
79574;SDS011;69044;48.198;11.468;2023-08-06T07:40:31;1.75;;;1.10;;
79574;SDS011;69044;48.198;11.468;2023-08-06T07:42:59;2.45;;;1.25;;
79574;SDS011;69044;48.198;11.468;2023-08-06T07:45:26;3.92;;;1.20;;
79574;SDS011;69044;48.198;11.468;2023-08-06T07:47:53;1.35;;;1.00;;
79574;SDS011;69044;48.198;11.468;2023-08-06T07:50:21;2.63;;;1.20;;
79574;SDS011;69044;48.198;11.468;2023-08-06T07:52:49;2.45;;;1.20;;
79574;SDS011;69044;48.198;11.468;2023-08-06T07:55:16;2.60;;;1.30;;
79574;SDS011;69044;48.198;11.468;2023-08-06T07:57:44;1.55;;;1.15;;
79574;SDS011;69044;48.198;11.468;2023-08-06T08:00:11;1.90;;;1.20;;
79574;SDS011;69044;48.198;11.468;2023-08-06T08:02:38;2.75;;;1.30;;
79574;SDS011;69044;48.198;11.468;2023-08-06T08:05:06;2.63;;;1.13;;
79574;SDS011;69044;48.198;11.468;2023-08-06T08:10:02;2.28;;;1.10;;
79574;SDS011;69044;48.198;11.468;2023-08-06T08:12:30;2.20;;;1.23;;
79574;SDS011;69044;48.198;11.468;2023-08-06T08:14:58;2.97;;;1.13;;
79574;SDS011;69044;48.198;11.468;2023-08-06T08:17:25;1.45;;;1.02;;
79574;SDS011;69044;48.198;11.468;2023-08-06T08:19:52;2.38;;;1.15;;
79574;SDS011;69044;48.198;11.468;2023-08-06T08:22:20;2.38;;;1.20;;
79574;SDS011;69044;48.198;11.468;2023-08-06T08:24:47;3.70;;;1.30;;
79574;SDS011;69044;48.198;11.468;2023-08-06T08:27:16;1.52;;;1.10;;
79574;SDS011;69044;48.198;11.468;2023-08-06T08:29:43;1.73;;;1.05;;
79574;SDS011;69044;48.198;11.468;2023-08-06T08:32:10;2.25;;;1.02;;
79574;SDS011;69044;48.198;11.468;2023-08-06T08:34:38;1.80;;;1.10;;
79574;SDS011;69044;48.198;11.468;2023-08-06T08:37:05;20.15;;;7.15;;
79574;SDS011;69044;48.198;11.468;2023-08-06T08:39:32;5.75;;;2.17;;
79574;SDS011;69044;48.198;11.468;2023-08-06T08:41:59;3.28;;;1.15;;
79574;SDS011;69044;48.198;11.468;2023-08-06T08:44:29;1.95;;;0.85;;
79574;SDS011;69044;48.198;11.468;2023-08-06T08:46:57;1.42;;;0.93;;
79574;SDS011;69044;48.198;11.468;2023-08-06T08:49:25;1.48;;;0.93;;
79574;SDS011;69044;48.198;11.468;2023-08-06T08:51:53;1.67;;;1.05;;
79574;SDS011;69044;48.198;11.468;2023-08-06T08:54:21;1.33;;;0.80;;
79574;SDS011;69044;48.198;11.468;2023-08-06T08:56:50;3.92;;;1.00;;
79574;SDS011;69044;48.198;11.468;2023-08-06T08:59:17;1.13;;;0.70;;
79574;SDS011;69044;48.198;11.468;2023-08-06T09:01:45;1.02;;;0.68;;
79574;SDS011;69044;48.198;11.468;2023-08-06T09:04:16;1.52;;;0.82;;
79574;SDS011;69044;48.198;11.468;2023-08-06T09:06:45;0.98;;;0.88;;
79574;SDS011;69044;48.198;11.468;2023-08-06T09:09:14;1.42;;;1.00;;
79574;SDS011;69044;48.198;11.468;2023-08-06T09:11:44;3.13;;;0.90;;
79574;SDS011;69044;48.198;11.468;2023-08-06T09:14:11;0.88;;;0.65;;
79574;SDS011;69044;48.198;11.468;2023-08-06T09:16:38;0.40;;;0.40;;
79574;SDS011;69044;48.198;11.468;2023-08-06T09:19:10;2.38;;;0.82;;
79574;SDS011;69044;48.198;11.468;2023-08-06T09:21:38;0.98;;;0.60;;
79574;SDS011;69044;48.198;11.468;2023-08-06T09:24:08;1.55;;;0.70;;
79574;SDS011;69044;48.198;11.468;2023-08-06T09:26:36;1.45;;;0.95;;
79574;SDS011;69044;48.198;11.468;2023-08-06T09:29:07;0.90;;;0.75;;
79574;SDS011;69044;48.198;11.468;2023-08-06T09:31:40;0.57;;;0.55;;
79574;SDS011;69044;48.198;11.468;2023-08-06T09:34:11;0.70;;;0.57;;
79574;SDS011;69044;48.198;11.468;2023-08-06T09:36:39;0.70;;;0.70;;
79574;SDS011;69044;48.198;11.468;2023-08-06T09:39:12;0.40;;;0.40;;
79574;SDS011;69044;48.198;11.468;2023-08-06T09:41:40;0.25;;;0.25;;
79574;SDS011;69044;48.198;11.468;2023-08-06T09:44:12;1.88;;;1.05;;
79574;SDS011;69044;48.198;11.468;2023-08-06T09:46:42;0.45;;;0.45;;
79574;SDS011;69044;48.198;11.468;2023-08-06T09:49:09;1.08;;;0.70;;
79574;SDS011;69044;48.198;11.468;2023-08-06T09:51:38;0.77;;;0.47;;
79574;SDS011;69044;48.198;11.468;2023-08-06T09:54:06;0.85;;;0.57;;
79574;SDS011;69044;48.198;11.468;2023-08-06T09:56:34;0.93;;;0.50;;
79574;SDS011;69044;48.198;11.468;2023-08-06T09:59:28;1.38;;;0.68;;
79574;SDS011;69044;48.198;11.468;2023-08-06T10:01:55;0.70;;;0.45;;
79574;SDS011;69044;48.198;11.468;2023-08-06T10:04:22;1.42;;;0.80;;
79574;SDS011;69044;48.198;11.468;2023-08-06T10:06:51;0.70;;;0.60;;
79574;SDS011;69044;48.198;11.468;2023-08-06T10:09:19;3.55;;;0.68;;
79574;SDS011;69044;48.198;11.468;2023-08-06T10:11:48;5.13;;;0.80;;
79574;SDS011;69044;48.198;11.468;2023-08-06T10:14:20;1.88;;;0.60;;
79574;SDS011;69044;48.198;11.468;2023-08-06T10:16:49;0.95;;;0.50;;
79574;SDS011;69044;48.198;11.468;2023-08-06T10:19:17;0.60;;;0.60;;
79574;SDS011;69044;48.198;11.468;2023-08-06T10:27:18;2.35;;;0.63;;
79574;SDS011;69044;48.198;11.468;2023-08-06T10:30:21;2.22;;;0.50;;
79574;SDS011;69044;48.198;11.468;2023-08-06T10:32:49;0.55;;;0.30;;
79574;SDS011;69044;48.198;11.468;2023-08-06T10:35:27;0.95;;;0.63;;
79574;SDS011;69044;48.198;11.468;2023-08-06T10:38:01;0.50;;;0.50;;
79574;SDS011;69044;48.198;11.468;2023-08-06T10:40:30;2.40;;;0.80;;
79574;SDS011;69044;48.198;11.468;2023-08-06T10:42:58;1.67;;;0.77;;
79574;SDS011;69044;48.198;11.468;2023-08-06T10:47:54;0.70;;;0.70;;
79574;SDS011;69044;48.198;11.468;2023-08-06T10:50:23;0.60;;;0.60;;
79574;SDS011;69044;48.198;11.468;2023-08-06T10:52:50;0.57;;;0.50;;
79574;SDS011;69044;48.198;11.468;2023-08-06T10:55:26;0.82;;;0.60;;
79574;SDS011;69044;48.198;11.468;2023-08-06T10:57:55;1.13;;;0.55;;
79574;SDS011;69044;48.198;11.468;2023-08-06T11:00:23;0.38;;;0.38;;
79574;SDS011;69044;48.198;11.468;2023-08-06T11:02:50;1.05;;;0.77;;
79574;SDS011;69044;48.198;11.468;2023-08-06T11:05:18;0.60;;;0.60;;
79574;SDS011;69044;48.198;11.468;2023-08-06T11:07:45;1.90;;;0.80;;
79574;SDS011;69044;48.198;11.468;2023-08-06T11:12:42;0.60;;;0.40;;
79574;SDS011;69044;48.198;11.468;2023-08-06T11:15:10;0.50;;;0.35;;
79574;SDS011;69044;48.198;11.468;2023-08-06T11:17:37;2.00;;;0.40;;
79574;SDS011;69044;48.198;11.468;2023-08-06T11:20:06;0.73;;;0.70;;
79574;SDS011;69044;48.198;11.468;2023-08-06T11:22:35;3.65;;;1.77;;
79574;SDS011;69044;48.198;11.468;2023-08-06T11:25:03;0.32;;;0.13;;
79574;SDS011;69044;48.198;11.468;2023-08-06T11:27:30;0.47;;;0.40;;
79574;SDS011;69044;48.198;11.468;2023-08-06T11:29:59;1.20;;;0.47;;
79574;SDS011;69044;48.198;11.468;2023-08-06T11:32:26;0.28;;;0.28;;
79574;SDS011;69044;48.198;11.468;2023-08-06T11:34:54;0.75;;;0.52;;
79574;SDS011;69044;48.198;11.468;2023-08-06T11:37:21;0.25;;;0.25;;
79574;SDS011;69044;48.198;11.468;2023-08-06T11:39:50;0.28;;;0.20;;
79574;SDS011;69044;48.198;11.468;2023-08-06T11:42:17;0.30;;;0.30;;
79574;SDS011;69044;48.198;11.468;2023-08-06T11:44:44;0.40;;;0.40;;
79574;SDS011;69044;48.198;11.468;2023-08-06T11:47:14;0.30;;;0.30;;
79574;SDS011;69044;48.198;11.468;2023-08-06T11:49:43;0.47;;;0.47;;
79574;SDS011;69044;48.198;11.468;2023-08-06T11:52:15;0.20;;;0.20;;
79574;SDS011;69044;48.198;11.468;2023-08-06T11:54:45;2.45;;;0.60;;
79574;SDS011;69044;48.198;11.468;2023-08-06T11:57:26;0.43;;;0.43;;
79574;SDS011;69044;48.198;11.468;2023-08-06T12:00:00;0.45;;;0.45;;
79574;SDS011;69044;48.198;11.468;2023-08-06T12:02:39;0.70;;;0.70;;
79574;SDS011;69044;48.198;11.468;2023-08-06T12:05:10;1.42;;;0.52;;
79574;SDS011;69044;48.198;11.468;2023-08-06T12:07:38;0.38;;;0.38;;
79574;SDS011;69044;48.198;11.468;2023-08-06T12:10:06;0.85;;;0.70;;
79574;SDS011;69044;48.198;11.468;2023-08-06T12:12:34;0.30;;;0.30;;
79574;SDS011;69044;48.198;11.468;2023-08-06T12:15:01;0.57;;;0.57;;
79574;SDS011;69044;48.198;11.468;2023-08-06T12:17:30;0.77;;;0.68;;
79574;SDS011;69044;48.198;11.468;2023-08-06T12:19:59;0.50;;;0.50;;
79574;SDS011;69044;48.198;11.468;2023-08-06T12:22:26;0.40;;;0.40;;
79574;SDS011;69044;48.198;11.468;2023-08-06T12:24:53;0.70;;;0.70;;
79574;SDS011;69044;48.198;11.468;2023-08-06T12:27:21;0.43;;;0.43;;
79574;SDS011;69044;48.198;11.468;2023-08-06T12:29:48;0.40;;;0.40;;
79574;SDS011;69044;48.198;11.468;2023-08-06T12:32:15;0.40;;;0.40;;
79574;SDS011;69044;48.198;11.468;2023-08-06T12:34:42;1.35;;;0.50;;
79574;SDS011;69044;48.198;11.468;2023-08-06T12:37:11;0.45;;;0.45;;
79574;SDS011;69044;48.198;11.468;2023-08-06T12:39:39;0.68;;;0.50;;
79574;SDS011;69044;48.198;11.468;2023-08-06T12:42:06;0.80;;;0.80;;
79574;SDS011;69044;48.198;11.468;2023-08-06T12:44:34;0.70;;;0.70;;
79574;SDS011;69044;48.198;11.468;2023-08-06T12:47:01;1.35;;;0.60;;
79574;SDS011;69044;48.198;11.468;2023-08-06T12:49:28;1.75;;;0.60;;
79574;SDS011;69044;48.198;11.468;2023-08-06T12:51:57;0.57;;;0.57;;
79574;SDS011;69044;48.198;11.468;2023-08-06T12:54:27;0.70;;;0.70;;
79574;SDS011;69044;48.198;11.468;2023-08-06T12:56:54;0.50;;;0.50;;
79574;SDS011;69044;48.198;11.468;2023-08-06T12:59:22;0.40;;;0.40;;
79574;SDS011;69044;48.198;11.468;2023-08-06T13:01:49;2.17;;;0.60;;
79574;SDS011;69044;48.198;11.468;2023-08-06T13:04:16;0.40;;;0.40;;
79574;SDS011;69044;48.198;11.468;2023-08-06T13:06:43;0.32;;;0.32;;
79574;SDS011;69044;48.198;11.468;2023-08-06T13:09:10;0.40;;;0.40;;
79574;SDS011;69044;48.198;11.468;2023-08-06T13:11:39;0.60;;;0.50;;
79574;SDS011;69044;48.198;11.468;2023-08-06T13:14:08;0.55;;;0.30;;
79574;SDS011;69044;48.198;11.468;2023-08-06T13:16:37;0.57;;;0.45;;
79574;SDS011;69044;48.198;11.468;2023-08-06T13:19:05;0.52;;;0.40;;
79574;SDS011;69044;48.198;11.468;2023-08-06T13:21:33;0.50;;;0.50;;
79574;SDS011;69044;48.198;11.468;2023-08-06T13:24:01;1.13;;;0.40;;
79574;SDS011;69044;48.198;11.468;2023-08-06T13:26:29;0.50;;;0.50;;
79574;SDS011;69044;48.198;11.468;2023-08-06T13:28:58;0.85;;;0.57;;
79574;SDS011;69044;48.198;11.468;2023-08-06T13:31:26;0.73;;;0.73;;
79574;SDS011;69044;48.198;11.468;2023-08-06T13:33:54;0.43;;;0.43;;
79574;SDS011;69044;48.198;11.468;2023-08-06T13:36:23;1.00;;;0.73;;
79574;SDS011;69044;48.198;11.468;2023-08-06T13:38:50;0.52;;;0.52;;
79574;SDS011;69044;48.198;11.468;2023-08-06T13:41:17;0.50;;;0.50;;
79574;SDS011;69044;48.198;11.468;2023-08-06T13:43:45;0.77;;;0.63;;
79574;SDS011;69044;48.198;11.468;2023-08-06T13:46:13;1.75;;;0.60;;
79574;SDS011;69044;48.198;11.468;2023-08-06T13:48:42;0.73;;;0.63;;
79574;SDS011;69044;48.198;11.468;2023-08-06T13:51:09;0.60;;;0.60;;
79574;SDS011;69044;48.198;11.468;2023-08-06T13:53:36;1.05;;;0.60;;
79574;SDS011;69044;48.198;11.468;2023-08-06T13:56:04;0.60;;;0.57;;
79574;SDS011;69044;48.198;11.468;2023-08-06T13:58:31;0.98;;;0.57;;
79574;SDS011;69044;48.198;11.468;2023-08-06T14:00:58;0.60;;;0.60;;
79574;SDS011;69044;48.198;11.468;2023-08-06T14:03:26;0.52;;;0.50;;
79574;SDS011;69044;48.198;11.468;2023-08-06T14:05:54;1.92;;;0.50;;
79574;SDS011;69044;48.198;11.468;2023-08-06T14:08:22;0.60;;;0.60;;
79574;SDS011;69044;48.198;11.468;2023-08-06T14:10:49;1.08;;;0.70;;
79574;SDS011;69044;48.198;11.468;2023-08-06T14:13:17;0.60;;;0.60;;
79574;SDS011;69044;48.198;11.468;2023-08-06T14:15:44;0.50;;;0.50;;
79574;SDS011;69044;48.198;11.468;2023-08-06T14:18:12;0.70;;;0.60;;
79574;SDS011;69044;48.198;11.468;2023-08-06T14:20:41;0.70;;;0.70;;
79574;SDS011;69044;48.198;11.468;2023-08-06T14:23:08;0.60;;;0.60;;
79574;SDS011;69044;48.198;11.468;2023-08-06T14:25:36;1.65;;;0.80;;
79574;SDS011;69044;48.198;11.468;2023-08-06T14:28:03;0.75;;;0.65;;
79574;SDS011;69044;48.198;11.468;2023-08-06T14:30:31;0.63;;;0.50;;
79574;SDS011;69044;48.198;11.468;2023-08-06T14:32:59;0.82;;;0.68;;
79574;SDS011;69044;48.198;11.468;2023-08-06T14:37:55;0.80;;;0.73;;
79574;SDS011;69044;48.198;11.468;2023-08-06T14:40:22;1.75;;;0.65;;
79574;SDS011;69044;48.198;11.468;2023-08-06T14:42:52;0.50;;;0.50;;
79574;SDS011;69044;48.198;11.468;2023-08-06T14:45:19;1.65;;;0.75;;
79574;SDS011;69044;48.198;11.468;2023-08-06T14:47:46;0.80;;;0.80;;
79574;SDS011;69044;48.198;11.468;2023-08-06T14:50:13;0.73;;;0.70;;
79574;SDS011;69044;48.198;11.468;2023-08-06T14:52:40;0.57;;;0.57;;
79574;SDS011;69044;48.198;11.468;2023-08-06T14:55:09;0.98;;;0.63;;
79574;SDS011;69044;48.198;11.468;2023-08-06T14:57:36;0.75;;;0.70;;
79574;SDS011;69044;48.198;11.468;2023-08-06T15:00:03;0.70;;;0.63;;
79574;SDS011;69044;48.198;11.468;2023-08-06T15:02:34;0.85;;;0.80;;
79574;SDS011;69044;48.198;11.468;2023-08-06T15:05:01;0.60;;;0.60;;